Time;durP1;ratioP1;P1;durP2;ratioP2;P2;SDS_P1;SDS_P2;PMS_P1;PMS_P2;Temp;Humidity;BMP_temperature;BMP_pressure;BME280_temperature;BME280_humidity;BME280_pressure;Samples;Min_cycle;Max_cycle;Signal;HPM_P1;HPM_P2
2023/09/14 00:01:01;;;;;;;22.60;17.77;;;18.00;99.90;;;;;;5031839;28;20085;-73
2023/09/14 00:03:27;;;;;;;25.90;19.58;;;18.00;99.90;;;;;;5030706;28;20542;-73
2023/09/14 00:05:52;;;;;;;27.92;19.75;;;17.90;99.90;;;;;;5032118;28;20096;-73
2023/09/14 00:08:20;;;;;;;37.38;23.15;;;17.90;99.90;;;;;;5031124;28;20030;-79
2023/09/14 00:10:53;;;;;;;30.35;22.30;;;17.80;99.90;;;;;;5031250;28;20061;-78
2023/09/14 00:13:18;;;;;;;;;;;17.80;99.90;;;;;;5032525;28;20048;-78
2023/09/14 00:15:44;;;;;;;17.95;14.75;;;17.70;99.90;;;;;;5031913;28;20355;-79
2023/09/14 00:18:09;;;;;;;18.55;14.05;;;17.60;99.90;;;;;;5031781;28;20045;-73
2023/09/14 00:20:35;;;;;;;14.07;10.88;;;17.60;99.90;;;;;;5031874;28;20028;-79
2023/09/14 00:23:03;;;;;;;12.85;9.02;;;17.50;99.90;;;;;;5031582;28;20021;-79
2023/09/14 00:25:28;;;;;;;12.90;9.18;;;17.50;99.90;;;;;;5031743;28;20482;-80
2023/09/14 00:27:54;;;;;;;15.23;9.45;;;17.40;99.90;;;;;;5031456;28;20045;-74
2023/09/14 00:30:21;;;;;;;9.90;8.88;;;17.40;99.90;;;;;;5031332;28;20079;-73
2023/09/14 00:32:49;;;;;;;11.50;9.20;;;17.30;99.90;;;;;;5019036;28;20523;-79
2023/09/14 00:35:15;;;;;;;10.65;8.57;;;17.30;99.90;;;;;;5031511;28;20480;-73
2023/09/14 00:37:41;;;;;;;12.70;9.25;;;17.30;99.90;;;;;;5038468;28;20064;-73
2023/09/14 00:40:09;;;;;;;10.68;8.20;;;17.30;99.90;;;;;;5048206;28;20021;-73
2023/09/14 00:42:43;;;;;;;10.57;9.18;;;17.20;99.90;;;;;;5039070;28;20029;-79
2023/09/14 00:45:14;;;;;;;9.05;8.13;;;17.30;99.90;;;;;;5037635;28;20025;-79
2023/09/14 00:47:52;;;;;;;8.68;7.05;;;17.20;99.90;;;;;;5050554;28;20036;-73
2023/09/14 00:50:20;;;;;;;7.72;6.45;;;17.20;99.90;;;;;;5049236;28;20530;-73
2023/09/14 00:52:53;;;;;;;10.10;8.18;;;17.10;99.90;;;;;;5050171;28;20029;-73
2023/09/14 00:55:19;;;;;;;8.18;6.63;;;17.10;99.90;;;;;;5019847;28;20082;-73
2023/09/14 00:57:48;;;;;;;7.80;6.70;;;17.10;99.90;;;;;;5041946;28;20039;-79
2023/09/14 01:00:14;;;;;;;8.00;7.05;;;17.10;99.90;;;;;;5031564;28;20016;-73
2023/09/14 01:02:40;;;;;;;7.03;6.32;;;17.10;99.90;;;;;;5031404;28;20025;-79
2023/09/14 01:05:07;;;;;;;6.15;5.40;;;17.10;99.90;;;;;;5031390;28;20028;-79
2023/09/14 01:07:34;;;;;;;9.80;6.10;;;17.10;99.90;;;;;;5031103;28;20026;-79
2023/09/14 01:10:00;;;;;;;5.57;5.07;;;17.10;99.90;;;;;;5029482;28;20028;-79
2023/09/14 01:12:26;;;;;;;4.90;4.40;;;17.10;99.90;;;;;;5043363;28;20535;-73
2023/09/14 01:15:02;;;;;;;5.82;5.25;;;17.10;99.90;;;;;;5030454;28;20414;-79
2023/09/14 01:17:45;;;;;;;6.65;5.32;;;17.10;99.90;;;;;;5030312;28;20029;-79
2023/09/14 01:20:46;;;;;;;5.65;5.10;;;17.10;99.90;;;;;;5050321;28;20020;-79
2023/09/14 01:23:42;;;;;;;6.75;5.88;;;17.10;99.90;;;;;;5019171;28;20025;-79
2023/09/14 01:26:09;;;;;;;5.80;5.10;;;17.10;99.90;;;;;;5030640;28;20093;-73
2023/09/14 01:28:35;;;;;;;7.03;4.88;;;17.10;99.90;;;;;;5029406;28;20029;-78
2023/09/14 01:31:01;;;;;;;7.10;5.28;;;17.10;99.90;;;;;;5047455;28;20039;-73
2023/09/14 01:33:29;;;;;;;7.10;5.45;;;17.10;99.90;;;;;;5050072;28;20040;-73
2023/09/14 01:36:28;;;;;;;6.18;5.57;;;17.10;99.90;;;;;;5044246;28;20164;-73
2023/09/14 01:38:55;;;;;;;6.72;5.95;;;17.00;99.90;;;;;;5030388;28;20399;-78
2023/09/14 01:41:21;;;;;;;6.07;5.47;;;16.90;99.90;;;;;;5040549;28;20036;-73
2023/09/14 01:43:51;;;;;;;6.00;5.38;;;16.90;99.90;;;;;;5048505;28;20149;-79
2023/09/14 01:46:17;;;;;;;5.47;4.95;;;16.90;99.90;;;;;;5047733;28;20032;-73
2023/09/14 01:48:44;;;;;;;6.57;5.32;;;16.80;99.90;;;;;;5048712;28;20021;-73
2023/09/14 01:51:10;;;;;;;5.20;4.70;;;16.80;99.90;;;;;;5038867;28;20021;-78
2023/09/14 01:53:35;;;;;;;5.60;5.00;;;16.70;99.90;;;;;;5039104;28;20040;-73
2023/09/14 01:56:01;;;;;;;6.93;4.38;;;16.70;99.90;;;;;;5032759;28;20082;-78
2023/09/14 01:58:27;;;;;;;7.82;5.00;;;16.60;99.90;;;;;;5039413;28;20428;-73
2023/09/14 02:00:52;;;;;;;6.20;4.47;;;16.70;99.90;;;;;;5044983;28;20093;-73
2023/09/14 02:03:18;;;;;;;5.88;4.43;;;16.70;99.90;;;;;;5015048;28;20072;-73
2023/09/14 02:05:44;;;;;;;5.78;5.18;;;16.70;99.90;;;;;;5022202;28;20018;-78
2023/09/14 02:08:09;;;;;;;5.40;3.92;;;16.70;99.90;;;;;;5027020;28;20049;-73
2023/09/14 02:10:35;;;;;;;4.50;4.10;;;16.70;99.90;;;;;;5044111;28;20013;-78
2023/09/14 02:13:01;;;;;;;7.22;5.45;;;16.80;99.90;;;;;;5038812;28;20383;-73
2023/09/14 02:15:26;;;;;;;4.95;4.53;;;16.70;99.90;;;;;;5047108;28;20022;-79
2023/09/14 02:17:52;;;;;;;5.43;4.93;;;16.70;99.90;;;;;;5032916;28;20037;-79
2023/09/14 02:20:17;;;;;;;5.80;5.07;;;16.70;99.90;;;;;;5029735;28;20025;-78
2023/09/14 02:22:43;;;;;;;7.60;5.25;;;16.70;99.90;;;;;;5030191;28;20091;-78
2023/09/14 02:25:09;;;;;;;5.40;4.90;;;16.60;99.90;;;;;;5029967;28;20034;-73
2023/09/14 02:27:35;;;;;;;5.80;5.00;;;16.70;99.90;;;;;;5030043;28;20025;-79
2023/09/14 02:30:01;;;;;;;4.57;3.90;;;16.70;99.90;;;;;;5029735;28;20021;-73
2023/09/14 02:32:26;;;;;;;4.32;3.80;;;16.60;99.90;;;;;;5028994;28;20022;-73
2023/09/14 02:34:52;;;;;;;5.22;4.53;;;16.60;99.90;;;;;;5017943;28;20371;-79
2023/09/14 02:37:17;;;;;;;5.00;4.20;;;16.70;99.90;;;;;;5028131;28;20056;-72
2023/09/14 02:39:43;;;;;;;3.63;3.33;;;16.60;99.90;;;;;;5028476;28;20029;-73
2023/09/14 02:42:09;;;;;;;3.50;3.13;;;16.70;99.90;;;;;;5029639;28;20029;-73
2023/09/14 02:44:37;;;;;;;3.47;3.15;;;16.70;99.90;;;;;;5029814;28;20387;-73
2023/09/14 02:47:03;;;;;;;3.45;3.13;;;16.70;99.90;;;;;;5029735;28;20034;-73
2023/09/14 02:49:29;;;;;;;4.00;3.63;;;16.70;99.90;;;;;;5028539;28;20029;-78
2023/09/14 02:51:55;;;;;;;3.53;3.22;;;16.70;99.90;;;;;;5011941;28;20390;-78
2023/09/14 02:54:20;;;;;;;4.20;3.80;;;16.80;99.90;;;;;;5031776;28;20042;-79
2023/09/14 02:56:47;;;;;;;4.72;3.33;;;16.80;99.90;;;;;;5031798;28;20021;-73
2023/09/14 02:59:15;;;;;;;4.78;4.00;;;16.70;99.90;;;;;;5033181;28;20025;-73
2023/09/14 03:01:43;;;;;;;3.80;3.42;;;16.70;99.90;;;;;;5033684;28;20025;-73
2023/09/14 03:04:09;;;;;;;4.85;4.07;;;16.70;99.90;;;;;;5033144;28;20049;-78
2023/09/14 03:06:35;;;;;;;5.05;4.55;;;16.70;99.90;;;;;;5032998;28;20053;-79
2023/09/14 03:09:00;;;;;;;3.95;3.65;;;16.80;99.90;;;;;;5027997;28;20039;-78
2023/09/14 03:11:26;;;;;;;4.93;4.43;;;16.70;99.90;;;;;;5050328;28;20445;-73
2023/09/14 03:13:52;;;;;;;7.07;4.90;;;16.80;99.90;;;;;;5051929;28;20033;-73
2023/09/14 03:16:17;;;;;;;6.78;4.57;;;16.80;99.90;;;;;;5038641;28;20068;-79
2023/09/14 03:18:43;;;;;;;5.60;5.10;;;16.80;99.90;;;;;;5039318;28;20028;-78
2023/09/14 03:21:22;;;;;;;5.32;4.82;;;16.80;99.90;;;;;;5038399;28;20029;-79
2023/09/14 03:23:48;;;;;;;6.35;5.05;;;16.70;99.90;;;;;;5030500;28;20081;-73
2023/09/14 03:26:14;;;;;;;5.45;4.97;;;16.70;99.90;;;;;;5049315;28;20029;-78
2023/09/14 03:28:39;;;;;;;5.88;5.38;;;16.70;99.90;;;;;;5042235;28;20018;-78
2023/09/14 03:31:05;;;;;;;7.22;5.43;;;16.70;99.90;;;;;;5032382;28;20025;-73
2023/09/14 03:33:31;;;;;;;9.50;5.90;;;16.70;99.90;;;;;;5040781;28;20436;-73
2023/09/14 03:35:56;;;;;;;5.72;5.18;;;16.70;99.90;;;;;;5048651;28;20025;-73
2023/09/14 03:38:22;;;;;;;6.32;5.72;;;16.70;99.90;;;;;;5032454;28;20058;-73
2023/09/14 03:40:48;;;;;;;6.55;5.57;;;16.70;99.90;;;;;;5043610;28;20214;-78
2023/09/14 03:43:13;;;;;;;8.77;5.85;;;16.70;99.90;;;;;;5040443;28;20021;-73
2023/09/14 03:45:39;;;;;;;8.55;7.63;;;16.70;99.90;;;;;;5049464;28;20056;-73
2023/09/14 03:48:05;;;;;;;6.65;5.93;;;16.70;99.90;;;;;;5050960;28;20024;-77
2023/09/14 03:50:31;;;;;;;8.98;6.93;;;16.70;99.90;;;;;;5036384;28;20075;-77
2023/09/14 03:52:57;;;;;;;9.27;6.80;;;16.70;99.90;;;;;;5032253;28;20037;-78
2023/09/14 03:55:22;;;;;;;7.75;6.35;;;16.70;99.90;;;;;;5032078;28;20025;-73
2023/09/14 03:57:48;;;;;;;10.43;7.65;;;16.70;99.90;;;;;;5039956;28;20033;-78
2023/09/14 04:00:15;;;;;;;8.13;7.32;;;16.70;99.90;;;;;;5035898;28;20025;-78
2023/09/14 04:02:44;;;;;;;7.55;6.78;;;16.70;99.90;;;;;;5032116;28;20383;-79
2023/09/14 04:05:15;;;;;;;8.18;7.13;;;16.80;99.90;;;;;;5030978;28;20036;-74
2023/09/14 04:07:41;;;;;;;8.85;7.82;;;16.80;99.90;;;;;;5023102;28;20433;-73
2023/09/14 04:10:10;;;;;;;10.45;7.57;;;16.80;99.90;;;;;;5028077;28;21475;-78
2023/09/14 04:12:40;;;;;;;9.65;8.65;;;16.80;99.90;;;;;;5031546;28;20408;-73
2023/09/14 04:15:06;;;;;;;11.23;8.57;;;16.80;99.90;;;;;;5032085;28;20014;-79
2023/09/14 04:17:32;;;;;;;10.98;9.20;;;16.80;99.90;;;;;;5031980;28;20100;-73
2023/09/14 04:19:58;;;;;;;10.27;8.80;;;16.70;99.90;;;;;;5032029;28;20021;-80
2023/09/14 04:22:24;;;;;;;11.23;9.50;;;16.70;99.90;;;;;;5031823;28;20105;-78
2023/09/14 04:24:50;;;;;;;10.75;9.55;;;16.70;99.90;;;;;;5031958;28;20389;-73
2023/09/14 04:27:15;;;;;;;12.25;10.55;;;16.70;99.90;;;;;;5031927;28;20028;-73
2023/09/14 04:29:42;;;;;;;13.02;10.00;;;16.70;99.90;;;;;;5033317;28;20440;-73
2023/09/14 04:32:08;;;;;;;13.45;10.60;;;16.70;99.90;;;;;;5038225;28;20026;-75
2023/09/14 04:34:34;;;;;;;14.15;10.10;;;16.70;99.90;;;;;;5035329;28;20044;-73
2023/09/14 04:36:59;;;;;;;12.10;10.68;;;16.70;99.90;;;;;;5038104;28;20037;-73
2023/09/14 04:39:26;;;;;;;15.10;11.88;;;16.70;99.90;;;;;;5039188;28;20029;-73
2023/09/14 04:41:51;;;;;;;13.38;11.98;;;16.70;99.90;;;;;;5031356;28;20018;-77
2023/09/14 04:44:17;;;;;;;16.75;13.38;;;16.60;99.90;;;;;;5033829;28;20022;-79
2023/09/14 04:46:43;;;;;;;14.82;13.32;;;16.60;99.90;;;;;;5038991;28;20029;-73
2023/09/14 04:49:08;;;;;;;16.30;14.13;;;16.50;99.90;;;;;;5035026;28;20513;-73
2023/09/14 04:51:34;;;;;;;18.23;14.85;;;16.50;99.90;;;;;;5032516;28;20037;-73
2023/09/14 04:53:59;;;;;;;20.92;15.07;;;16.50;99.90;;;;;;5021029;28;20034;-79
2023/09/14 04:56:25;;;;;;;34.83;14.75;;;16.50;99.90;;;;;;5031288;28;20383;-74
2023/09/14 04:58:51;;;;;;;15.35;13.25;;;16.50;99.90;;;;;;5040008;28;20493;-73
2023/09/14 05:01:17;;;;;;;16.52;14.73;;;16.50;99.90;;;;;;5030681;28;20024;-79
2023/09/14 05:03:43;;;;;;;18.17;15.18;;;16.50;99.90;;;;;;5030990;28;20028;-77
2023/09/14 05:06:08;;;;;;;16.13;13.02;;;16.50;99.90;;;;;;5028219;28;20029;-79
2023/09/14 05:08:34;;;;;;;17.08;15.13;;;16.50;99.90;;;;;;5017124;28;20028;-78
2023/09/14 05:11:01;;;;;;;16.08;14.35;;;16.50;99.90;;;;;;5015732;28;20046;-78
2023/09/14 05:13:27;;;;;;;17.48;13.48;;;16.50;99.90;;;;;;5023486;28;21139;-71
2023/09/14 05:15:52;;;;;;;15.95;12.65;;;16.50;99.90;;;;;;5016987;28;20018;-73
2023/09/14 05:18:18;;;;;;;17.38;13.48;;;16.60;99.90;;;;;;5023093;28;20110;-73
2023/09/14 05:20:45;;;;;;;16.67;13.93;;;16.60;99.90;;;;;;5021768;28;20030;-73
2023/09/14 05:23:10;;;;;;;15.48;13.68;;;16.60;99.90;;;;;;5017429;28;20566;-73
2023/09/14 05:25:36;;;;;;;15.23;13.57;;;16.60;99.90;;;;;;5016655;28;20112;-73
2023/09/14 05:28:02;;;;;;;16.23;13.65;;;16.60;99.90;;;;;;5015593;28;20018;-80
2023/09/14 05:30:27;;;;;;;15.02;13.32;;;16.60;99.90;;;;;;5028765;28;20029;-78
2023/09/14 05:32:53;;;;;;;14.30;12.80;;;16.60;99.90;;;;;;5030628;28;20490;-74
2023/09/14 05:35:19;;;;;;;18.63;13.30;;;16.60;99.90;;;;;;5033259;28;20078;-73
2023/09/14 05:37:45;;;;;;;18.00;12.98;;;16.60;99.90;;;;;;5012129;28;20617;-74
2023/09/14 05:40:11;;;;;;;15.80;13.48;;;16.50;99.90;;;;;;5017190;28;20037;-74
2023/09/14 05:42:38;;;;;;;14.85;12.93;;;16.50;99.90;;;;;;5013928;28;20475;-74
2023/09/14 05:45:08;;;;;;;13.52;12.13;;;16.40;99.90;;;;;;5026588;28;20438;-79
2023/09/14 05:47:34;;;;;;;15.35;11.88;;;16.30;99.90;;;;;;5026859;28;20043;-78
2023/09/14 05:50:00;;;;;;;12.30;10.82;;;16.30;99.90;;;;;;5028274;28;20025;-78
2023/09/14 05:52:26;;;;;;;12.30;10.50;;;16.30;99.90;;;;;;5028140;28;20052;-74
2023/09/14 05:54:52;;;;;;;13.43;9.68;;;16.20;99.90;;;;;;5026971;28;20128;-74
2023/09/14 05:57:18;;;;;;;10.25;8.55;;;16.20;99.90;;;;;;5027537;28;20096;-74
2023/09/14 05:59:43;;;;;;;9.38;8.48;;;16.00;99.90;;;;;;5025981;28;20017;-74
2023/09/14 06:02:09;;;;;;;12.38;9.60;;;16.00;99.90;;;;;;5027002;28;20043;-78
2023/09/14 06:04:35;;;;;;;13.55;10.35;;;15.90;99.90;;;;;;5026012;28;20040;-74
2023/09/14 06:07:01;;;;;;;15.02;10.50;;;15.90;99.90;;;;;;5035731;28;20565;-78
2023/09/14 06:09:27;;;;;;;16.67;11.35;;;15.90;99.90;;;;;;5016621;28;20065;-78
2023/09/14 06:11:53;;;;;;;13.60;11.25;;;15.90;99.90;;;;;;5030554;28;20013;-78
2023/09/14 06:14:19;;;;;;;15.40;11.73;;;15.90;99.90;;;;;;5036857;28;20040;-78
2023/09/14 06:16:45;;;;;;;18.75;13.35;;;15.90;99.90;;;;;;5033135;28;20021;-79
2023/09/14 06:19:10;;;;;;;16.13;13.27;;;15.90;99.90;;;;;;5049570;28;20130;-79
2023/09/14 06:21:36;;;;;;;19.02;13.40;;;16.00;99.90;;;;;;5035737;28;20017;-78
2023/09/14 06:24:02;;;;;;;15.45;10.77;;;16.00;99.90;;;;;;5048874;28;20028;-74
2023/09/14 06:26:29;;;;;;;13.20;10.20;;;16.00;99.90;;;;;;5032308;28;20098;-79
2023/09/14 06:28:55;;;;;;;12.70;10.73;;;15.90;99.90;;;;;;5038478;28;20021;-74
2023/09/14 06:31:22;;;;;;;19.25;11.65;;;16.00;99.90;;;;;;5047723;28;20042;-79
2023/09/14 06:33:51;;;;;;;13.88;9.55;;;16.00;99.90;;;;;;5047520;28;20033;-74
2023/09/14 06:36:20;;;;;;;11.32;9.48;;;16.00;99.90;;;;;;5042403;28;20409;-79
2023/09/14 06:38:47;;;;;;;10.60;8.85;;;16.00;99.90;;;;;;5029866;28;20113;-74
2023/09/14 06:41:14;;;;;;;9.15;7.57;;;16.00;99.90;;;;;;5028538;28;20022;-74
2023/09/14 06:43:42;;;;;;;9.85;7.38;;;16.10;99.90;;;;;;5029815;28;20033;-73
2023/09/14 06:46:09;;;;;;;8.77;7.32;;;16.10;99.90;;;;;;5027170;28;20022;-74
2023/09/14 06:48:35;;;;;;;9.43;6.63;;;16.10;99.90;;;;;;5035440;28;20021;-74
2023/09/14 06:51:01;;;;;;;11.48;7.50;;;16.20;99.90;;;;;;5041643;28;20108;-80
2023/09/14 06:53:27;;;;;;;7.53;6.57;;;16.20;99.90;;;;;;5040546;28;20029;-79
2023/09/14 06:55:52;;;;;;;6.95;5.90;;;16.20;99.90;;;;;;5043090;28;20066;-79
2023/09/14 06:58:18;;;;;;;7.28;6.57;;;16.20;99.90;;;;;;5048407;28;20471;-78
2023/09/14 07:00:45;;;;;;;8.60;5.18;;;16.30;99.90;;;;;;5041954;28;20471;-74
2023/09/14 07:03:10;;;;;;;7.32;5.95;;;16.20;99.90;;;;;;5029684;28;20021;-79
2023/09/14 07:05:37;;;;;;;7.40;5.20;;;16.30;99.90;;;;;;5029645;28;20021;-74
2023/09/14 07:08:03;;;;;;;6.07;5.20;;;16.30;99.90;;;;;;5019138;28;20018;-74
2023/09/14 07:10:29;;;;;;;5.00;4.50;;;16.40;99.90;;;;;;5028735;28;20104;-78
2023/09/14 07:12:55;;;;;;;6.97;5.38;;;16.40;99.90;;;;;;5028033;28;20078;-78
2023/09/14 07:15:21;;;;;;;7.80;4.72;;;16.50;99.90;;;;;;5029625;28;20104;-79
2023/09/14 07:17:47;;;;;;;5.80;5.10;;;16.50;99.90;;;;;;5028724;28;20493;-78
2023/09/14 07:20:13;;;;;;;5.15;4.65;;;16.60;99.90;;;;;;5029331;28;20028;-79
2023/09/14 07:22:39;;;;;;;5.07;4.38;;;16.60;99.90;;;;;;5027926;28;20421;-74
2023/09/14 07:25:05;;;;;;;7.15;5.45;;;16.60;99.90;;;;;;5029158;28;20026;-74
2023/09/14 07:27:31;;;;;;;5.75;4.95;;;16.70;99.90;;;;;;5029278;28;20029;-79
2023/09/14 07:29:57;;;;;;;5.15;4.65;;;16.80;99.90;;;;;;5029263;28;20017;-79
2023/09/14 07:32:23;;;;;;;5.32;4.82;;;17.00;99.90;;;;;;5029323;28;20018;-79
2023/09/14 07:34:48;;;;;;;5.40;4.65;;;17.10;99.90;;;;;;5028914;28;20033;-79
2023/09/14 07:37:14;;;;;;;6.22;4.88;;;17.30;99.90;;;;;;5029132;28;20145;-73
2023/09/14 07:39:40;;;;;;;7.57;5.05;;;17.20;99.90;;;;;;5029838;28;20017;-74
2023/09/14 07:42:05;;;;;;;7.55;5.05;;;17.20;99.90;;;;;;5031675;28;20041;-74
2023/09/14 07:44:31;;;;;;;4.90;4.32;;;17.20;99.90;;;;;;5033193;28;20025;-73
2023/09/14 07:46:57;;;;;;;6.18;5.55;;;17.30;99.90;;;;;;5028696;28;20100;-79
2023/09/14 07:49:22;;;;;;;8.93;6.15;;;17.30;99.90;;;;;;5033383;28;20387;-74
2023/09/14 07:51:48;;;;;;;11.30;7.55;;;17.30;99.90;;;;;;5033375;28;20074;-73
2023/09/14 07:54:16;;;;;;;7.22;5.20;;;17.40;99.90;;;;;;5033012;28;20075;-74
2023/09/14 07:56:42;;;;;;;5.47;4.32;;;17.50;99.90;;;;;;5031156;28;20064;-74
2023/09/14 07:59:08;;;;;;;5.78;5.10;;;17.50;99.90;;;;;;5033844;28;20053;-79
2023/09/14 08:01:34;;;;;;;5.00;4.47;;;17.50;99.90;;;;;;5030999;28;20063;-74
2023/09/14 08:04:01;;;;;;;4.32;3.92;;;17.50;99.90;;;;;;5031567;28;20022;-74
2023/09/14 08:06:26;;;;;;;8.32;4.25;;;17.70;99.90;;;;;;5032373;28;20049;-79
2023/09/14 08:08:53;;;;;;;6.05;5.30;;;17.80;99.90;;;;;;5025039;28;20013;-74
2023/09/14 08:11:19;;;;;;;7.72;4.68;;;17.90;99.90;;;;;;5039415;28;20022;-80
2023/09/14 08:13:44;;;;;;;6.35;4.30;;;17.80;99.90;;;;;;5037208;28;20040;-78
2023/09/14 08:16:10;;;;;;;5.70;4.75;;;17.70;99.90;;;;;;5051721;28;20049;-78
2023/09/14 08:18:36;;;;;;;7.50;5.05;;;17.80;99.90;;;;;;5032550;28;20100;-79
2023/09/14 08:21:01;;;;;;;5.95;5.13;;;17.70;99.90;;;;;;5042709;28;20029;-73
2023/09/14 08:23:29;;;;;;;5.18;4.68;;;17.80;99.90;;;;;;5032399;28;20025;-79
2023/09/14 08:25:54;;;;;;;5.55;4.85;;;17.80;99.90;;;;;;5042868;28;20109;-74
2023/09/14 08:28:20;;;;;;;5.82;5.32;;;17.90;99.90;;;;;;5050957;28;20383;-79
2023/09/14 08:30:47;;;;;;;6.00;5.00;;;18.10;99.90;;;;;;5037843;28;20022;-73
2023/09/14 08:33:13;;;;;;;6.18;5.53;;;18.20;99.90;;;;;;5030222;28;20447;-74
2023/09/14 08:35:39;;;;;;;5.40;4.28;;;18.20;99.90;;;;;;5042887;28;20497;-79
2023/09/14 08:38:06;;;;;;;6.65;5.97;;;18.00;99.90;;;;;;5031238;28;20049;-79
2023/09/14 08:40:32;;;;;;;7.07;5.70;;;17.80;99.90;;;;;;5035881;28;20021;-74
2023/09/14 08:43:00;;;;;;;8.43;5.88;;;17.70;99.90;;;;;;5036773;28;20425;-79
2023/09/14 08:45:27;;;;;;;7.85;7.00;;;17.70;99.90;;;;;;5042724;28;20025;-79
2023/09/14 08:47:54;;;;;;;7.70;6.90;;;17.60;99.90;;;;;;5037004;28;20025;-74
2023/09/14 08:50:25;;;;;;;8.35;6.70;;;17.60;99.90;;;;;;5036951;28;20034;-73
2023/09/14 08:52:51;;;;;;;6.82;6.10;;;17.70;99.90;;;;;;5046481;28;20043;-79
2023/09/14 08:55:19;;;;;;;8.38;7.00;;;17.60;99.90;;;;;;5047760;28;20025;-79
2023/09/14 08:57:46;;;;;;;8.18;7.07;;;17.60;99.90;;;;;;5050273;28;20593;-74
2023/09/14 09:00:17;;;;;;;7.20;6.47;;;17.50;99.90;;;;;;5036979;28;20033;-74
2023/09/14 09:02:48;;;;;;;8.70;6.38;;;17.50;99.90;;;;;;5031862;28;20022;-73
2023/09/14 09:05:15;;;;;;;8.68;6.95;;;17.50;99.90;;;;;;5042047;28;20021;-79
2023/09/14 09:07:42;;;;;;;12.05;7.70;;;17.60;99.90;;;;;;5023299;28;20512;-73
2023/09/14 09:10:13;;;;;;;8.07;7.25;;;17.60;99.90;;;;;;5040328;28;20025;-74
2023/09/14 09:12:39;;;;;;;8.30;6.95;;;17.60;99.90;;;;;;5041098;28;20094;-76
2023/09/14 09:15:07;;;;;;;8.60;7.22;;;17.70;99.90;;;;;;5049879;28;20470;-74
2023/09/14 09:17:40;;;;;;;8.45;7.13;;;17.80;99.90;;;;;;5040494;28;20021;-79
2023/09/14 09:20:22;;;;;;;10.35;7.63;;;17.90;99.90;;;;;;5030941;28;20014;-74
2023/09/14 09:22:50;;;;;;;11.02;7.65;;;17.90;99.90;;;;;;5029490;28;20037;-73
2023/09/14 09:25:17;;;;;;;13.63;8.05;;;18.00;99.90;;;;;;5029639;28;20546;-73
2023/09/14 09:27:43;;;;;;;10.02;7.72;;;18.00;99.90;;;;;;5031375;28;20078;-79
2023/09/14 09:30:10;;;;;;;12.45;9.38;;;17.90;99.90;;;;;;5050458;28;20021;-79
2023/09/14 09:32:38;;;;;;;12.25;8.90;;;17.90;99.90;;;;;;5034731;28;20052;-79
2023/09/14 09:35:21;;;;;;;11.48;8.80;;;17.80;99.90;;;;;;5030766;28;20029;-74
2023/09/14 09:37:48;;;;;;;10.85;9.35;;;17.70;99.90;;;;;;5043620;28;20110;-74
2023/09/14 09:40:19;;;;;;;15.02;9.93;;;17.70;99.90;;;;;;5030755;28;20104;-79
2023/09/14 09:42:46;;;;;;;13.57;10.77;;;17.80;99.90;;;;;;5029257;28;20375;-74
2023/09/14 09:45:13;;;;;;;18.00;11.40;;;17.80;99.90;;;;;;5040469;28;20013;-74
2023/09/14 09:47:39;;;;;;;14.55;11.85;;;18.00;99.90;;;;;;5032201;28;20017;-79
2023/09/14 09:50:10;;;;;;;15.13;11.13;;;18.00;99.90;;;;;;5030503;28;20029;-79
2023/09/14 09:52:37;;;;;;;10.88;9.30;;;18.10;99.90;;;;;;5048421;28;20025;-74
2023/09/14 09:55:04;;;;;;;12.15;9.60;;;18.00;99.90;;;;;;5037973;28;20033;-74
2023/09/14 09:57:32;;;;;;;15.13;10.00;;;18.00;99.90;;;;;;5030155;28;20106;-79
2023/09/14 09:59:58;;;;;;;11.48;9.70;;;18.10;99.90;;;;;;5030280;28;20078;-74
2023/09/14 10:02:31;;;;;;;11.18;8.52;;;18.10;99.90;;;;;;5028659;28;20110;-79
2023/09/14 10:04:58;;;;;;;10.02;8.60;;;18.10;99.90;;;;;;5029998;28;20029;-79
2023/09/14 10:07:24;;;;;;;12.88;9.48;;;18.20;99.90;;;;;;5024888;28;20383;-74
2023/09/14 10:09:53;;;;;;;12.30;10.38;;;18.10;99.90;;;;;;5024680;28;20364;-75
2023/09/14 10:12:24;;;;;;;12.80;9.15;;;18.00;99.90;;;;;;5041013;28;20049;-74
2023/09/14 10:14:55;;;;;;;12.05;9.60;;;18.00;99.90;;;;;;5043081;28;20052;-80
2023/09/14 10:17:28;;;;;;;12.32;8.93;;;18.10;99.90;;;;;;5030258;28;20021;-79
2023/09/14 10:19:55;;;;;;;10.80;9.23;;;18.20;99.90;;;;;;5029977;28;20053;-80
2023/09/14 10:22:23;;;;;;;11.43;8.30;;;18.30;99.90;;;;;;5030112;28;20505;-74
2023/09/14 10:24:50;;;;;;;10.00;8.35;;;18.40;99.90;;;;;;5028673;28;20021;-74
2023/09/14 10:27:16;;;;;;;13.02;9.65;;;18.60;99.90;;;;;;5029954;28;20025;-74
2023/09/14 10:29:43;;;;;;;11.77;9.25;;;18.70;99.90;;;;;;5029731;28;20018;-74
2023/09/14 10:32:11;;;;;;;9.38;8.43;;;18.80;99.90;;;;;;5039142;28;20047;-80
2023/09/14 10:34:41;;;;;;;13.38;8.90;;;18.80;99.90;;;;;;5030457;28;20034;-74
2023/09/14 10:37:09;;;;;;;10.18;8.20;;;18.80;99.90;;;;;;5029612;28;20495;-75
2023/09/14 10:39:37;;;;;;;10.13;8.40;;;18.70;99.90;;;;;;5034695;28;20020;-74
2023/09/14 10:42:04;;;;;;;11.40;9.35;;;18.80;99.90;;;;;;5049426;28;20091;-75
2023/09/14 10:44:30;;;;;;;10.85;9.25;;;18.90;99.90;;;;;;5047450;28;20032;-81
2023/09/14 10:46:58;;;;;;;9.40;8.48;;;18.90;99.90;;;;;;5035797;28;20478;-80
2023/09/14 10:49:35;;;;;;;10.88;8.20;;;18.90;99.90;;;;;;5048304;28;20029;-81
2023/09/14 10:52:02;;;;;;;10.52;8.55;;;18.80;99.90;;;;;;5047833;28;20112;-80
2023/09/14 10:54:30;;;;;;;10.80;8.32;;;18.80;99.90;;;;;;5037128;28;20033;-75
2023/09/14 10:57:00;;;;;;;10.45;8.05;;;18.80;99.90;;;;;;5043461;28;20017;-74
2023/09/14 10:59:48;;;;;;;9.30;7.70;;;18.90;99.90;;;;;;5041143;28;20018;-80
2023/09/14 11:02:37;;;;;;;10.60;9.07;;;19.00;99.90;;;;;;5035848;28;20428;-80
2023/09/14 11:05:15;;;;;;;11.07;7.95;;;19.10;99.90;;;;;;5043360;28;20128;-81
2023/09/14 11:07:44;;;;;;;22.58;8.02;;;19.20;99.90;;;;;;5031902;28;20026;-75
2023/09/14 11:10:16;;;;;;;11.40;8.43;;;19.30;99.90;;;;;;5025974;28;20374;-75
2023/09/14 11:12:43;;;;;;;12.63;8.38;;;19.40;99.90;;;;;;5028098;28;20022;-74
2023/09/14 11:15:23;;;;;;;12.25;8.60;;;19.30;99.90;;;;;;5031427;28;20378;-80
2023/09/14 11:17:52;;;;;;;11.52;8.07;;;19.40;99.90;;;;;;5033211;28;20108;-81
2023/09/14 11:20:20;;;;;;;9.15;7.15;;;19.40;99.90;;;;;;5033124;28;20465;-75
2023/09/14 11:22:50;;;;;;;12.13;8.60;;;19.40;99.90;;;;;;5032633;28;20025;-81
2023/09/14 11:25:26;;;;;;;9.40;7.85;;;19.40;99.90;;;;;;5020837;28;20501;-80
2023/09/14 11:27:52;;;;;;;11.05;8.25;;;19.40;99.90;;;;;;5032748;28;20487;-80
2023/09/14 11:30:19;;;;;;;12.23;8.82;;;19.20;99.90;;;;;;5032976;28;20018;-80
2023/09/14 11:32:46;;;;;;;10.30;8.95;;;19.30;99.90;;;;;;5030911;28;20029;-81
2023/09/14 11:35:12;;;;;;;13.13;10.57;;;19.30;99.90;;;;;;5032578;28;20075;-75
2023/09/14 11:37:40;;;;;;;13.18;9.98;;;19.50;99.90;;;;;;5045772;28;20156;-75
2023/09/14 11:40:17;;;;;;;13.98;10.95;;;19.70;99.90;;;;;;5052054;28;20021;-81
2023/09/14 11:43:07;;;;;;;12.07;10.27;;;19.90;99.90;;;;;;5046439;28;20050;-80
2023/09/14 11:45:42;;;;;;;10.48;8.63;;;20.20;96.80;;;;;;5032318;28;20041;-75
2023/09/14 11:48:13;;;;;;;14.13;9.85;;;20.20;88.50;;;;;;5042950;28;20051;-74
2023/09/14 11:50:43;;;;;;;11.90;8.82;;;20.30;88.80;;;;;;5045287;28;20500;-80
2023/09/14 11:53:12;;;;;;;8.68;6.97;;;20.20;88.50;;;;;;5032365;28;20426;-74
2023/09/14 11:55:39;;;;;;;10.60;8.25;;;20.20;87.70;;;;;;5035325;28;20356;-74
2023/09/14 11:58:05;;;;;;;10.70;8.23;;;20.40;89.50;;;;;;5050369;28;20078;-80
2023/09/14 12:00:52;;;;;;;11.38;8.75;;;20.30;89.30;;;;;;5050496;28;20538;-74
2023/09/14 12:03:18;;;;;;;10.90;8.80;;;20.30;89.30;;;;;;5050713;28;20371;-74
2023/09/14 12:05:45;;;;;;;11.23;9.02;;;20.30;89.30;;;;;;5044581;28;20100;-74
2023/09/14 12:08:12;;;;;;;10.13;8.65;;;20.00;87.00;;;;;;5020324;28;20026;-80
2023/09/14 12:10:39;;;;;;;12.98;9.50;;;19.80;90.00;;;;;;5030878;28;20451;-74
2023/09/14 12:13:10;;;;;;;11.95;8.63;;;19.80;95.00;;;;;;5039222;28;20072;-75
2023/09/14 12:15:36;;;;;;;12.00;9.23;;;19.70;94.50;;;;;;5032042;28;20073;-81
2023/09/14 12:18:03;;;;;;;11.90;9.32;;;19.70;97.10;;;;;;5045198;28;20029;-74
2023/09/14 12:20:29;;;;;;;12.07;9.25;;;19.80;94.70;;;;;;5031960;28;20030;-74
2023/09/14 12:22:56;;;;;;;9.52;7.88;;;19.80;94.70;;;;;;5030326;28;20025;-74
2023/09/14 12:25:22;;;;;;;9.07;7.22;;;19.80;96.80;;;;;;5031814;28;20063;-74
2023/09/14 12:27:48;;;;;;;9.88;7.45;;;19.70;96.20;;;;;;5030807;28;20064;-74
2023/09/14 12:30:15;;;;;;;9.10;6.65;;;19.70;98.10;;;;;;5030398;28;20434;-80
2023/09/14 12:32:41;;;;;;;8.48;6.82;;;19.60;97.90;;;;;;5033174;28;20062;-75
2023/09/14 12:35:09;;;;;;;8.85;6.57;;;19.70;99.90;;;;;;5041716;28;20028;-81
2023/09/14 12:37:35;;;;;;;6.88;5.57;;;19.70;99.90;;;;;;5046248;28;20049;-74
2023/09/14 12:40:10;;;;;;;7.68;5.70;;;19.70;99.90;;;;;;5047019;28;20021;-74
2023/09/14 12:42:37;;;;;;;6.00;5.43;;;19.70;99.90;;;;;;5034643;28;20017;-74